KOJC/OJC METAR and TAF weather

Enter ICAO airport designator
Station Type Date Time Source
KOJC METAR 2020/11/27 14:05 UTC NOAA

KOJC 271405Z 35007KT 8SM SCT007 03/02 A3021 RMK AO2 T00280017 $


Station Type Date Time Source
KOJC Decoded METAR 2020/11/27 14:05 UTC NOAA

OLATHE JOHNSON CO EXECUTIVE, KS, United States (KOJC) 38-50N 94-44W 326M
Nov 27, 2020 - 09:05 AM EST / 2020.11.27 1405 UTC
Wind: from the N (350 degrees) at 8 MPH (7 KT):0
Visibility: 8 mile(s):0
Sky conditions: partly cloudy
Temperature: 37.0 F (2.8 C)
Dew Point: 35.1 F (1.7 C)
Relative Humidity: 92%
Pressure (altimeter): 30.21 in. Hg (1023 hPa)
ob: KOJC 271405Z 35007KT 8SM SCT007 03/02 A3021 RMK AO2 T00280017
cycle: 14

Station Type Date Time Source
KOJC TAF UTC NOAA

Error!

Example: see airport list